Terminal Aerodrome Forecast
Issued by NWS

Home | Current Version | Previous Version | Text Only | Print | Product List | Glossary Off
Versions: 1 2 3 4 5 6 7 8 9 10 11 12 13 14 15 16 17 18 19 20 21 22 23 24

803
FTUS43 KABR 082320
TAFATY
TAF
KATY 082320Z 0900/0924 28015G23KT P6SM OVC070
     FM090300 34013G24KT P6SM BKN100
     FM090700 34015G22KT P6SM BKN020
     FM091200 34010KT P6SM BKN025
     FM091500 32009KT P6SM SCT025
     FM092300 24008KT P6SM SCT150=

USA.gov is the U.S. government's official web portal to all federal, state and local government web resources and services.